Terminal Aerodrome Forecast
Issued by NWS

Home | Current Version | Previous Version | Text Only | Print | Product List | Glossary On
Versions: 1 2 3 4 5 6 7 8 9 10 11 12 13 14 15 16 17
000
FTAK31 PAJN 231141
TAFAPG
TAF
PAPG 231141Z 2312/2412 VRB02KT P6SM BCFG SCT002 BKN020 BKN050
      TEMPO 2312/2316 1/2SM FG BKN002
     FM231800 06007KT P6SM SCT025 BKN050
     FM232100 06007KT P6SM VCSH BKN035 OVC045
     FM240000 08007KT P6SM -SHRA BKN025 OVC035
     FM240600 22005KT P6SM VCSH BKN040 BKN080
      AMD LTD TO CLD VIS AND WIND 2312/2315=

USA.gov is the U.S. government's official web portal to all federal, state and local government web resources and services.